sensor_id;sensor_type;location;lat;lon;timestamp;P1;durP1;ratioP1;P2;durP2;ratioP2
57309;SDS011;43153;50.984;18.204;2023-08-21T00:01:08;19.80;;;11.20;;
57309;SDS011;43153;50.984;18.204;2023-08-21T00:03:37;17.10;;;10.90;;
57309;SDS011;43153;50.984;18.204;2023-08-21T00:06:12;19.00;;;10.90;;
57309;SDS011;43153;50.984;18.204;2023-08-21T00:08:55;13.80;;;9.80;;
57309;SDS011;43153;50.984;18.204;2023-08-21T00:11:22;15.40;;;10.50;;
57309;SDS011;43153;50.984;18.204;2023-08-21T00:13:49;14.90;;;10.00;;
57309;SDS011;43153;50.984;18.204;2023-08-21T00:16:16;17.00;;;10.70;;
57309;SDS011;43153;50.984;18.204;2023-08-21T00:18:45;19.60;;;11.00;;
57309;SDS011;43153;50.984;18.204;2023-08-21T00:21:12;17.10;;;10.10;;
57309;SDS011;43153;50.984;18.204;2023-08-21T00:23:42;16.10;;;11.00;;
57309;SDS011;43153;50.984;18.204;2023-08-21T00:26:13;13.90;;;9.70;;
57309;SDS011;43153;50.984;18.204;2023-08-21T00:28:45;16.80;;;10.50;;
57309;SDS011;43153;50.984;18.204;2023-08-21T00:31:13;15.00;;;9.60;;
57309;SDS011;43153;50.984;18.204;2023-08-21T00:33:41;14.50;;;9.90;;
57309;SDS011;43153;50.984;18.204;2023-08-21T00:36:07;18.30;;;10.60;;
57309;SDS011;43153;50.984;18.204;2023-08-21T00:38:35;16.40;;;10.60;;
57309;SDS011;43153;50.984;18.204;2023-08-21T00:41:06;16.90;;;10.50;;
57309;SDS011;43153;50.984;18.204;2023-08-21T00:43:33;14.80;;;10.30;;
57309;SDS011;43153;50.984;18.204;2023-08-21T00:45:59;19.50;;;10.80;;
57309;SDS011;43153;50.984;18.204;2023-08-21T00:48:28;16.40;;;11.20;;
57309;SDS011;43153;50.984;18.204;2023-08-21T00:50:54;18.20;;;10.20;;
57309;SDS011;43153;50.984;18.204;2023-08-21T00:53:21;16.00;;;10.70;;
57309;SDS011;43153;50.984;18.204;2023-08-21T00:55:47;17.60;;;11.00;;
57309;SDS011;43153;50.984;18.204;2023-08-21T00:58:13;17.70;;;11.20;;
57309;SDS011;43153;50.984;18.204;2023-08-21T01:00:40;15.50;;;10.50;;
57309;SDS011;43153;50.984;18.204;2023-08-21T01:03:10;17.60;;;12.50;;
57309;SDS011;43153;50.984;18.204;2023-08-21T01:05:37;21.50;;;12.00;;
57309;SDS011;43153;50.984;18.204;2023-08-21T01:08:05;19.90;;;12.00;;
57309;SDS011;43153;50.984;18.204;2023-08-21T01:10:36;18.70;;;11.40;;
57309;SDS011;43153;50.984;18.204;2023-08-21T01:13:19;18.20;;;13.00;;
57309;SDS011;43153;50.984;18.204;2023-08-21T01:15:57;17.30;;;12.00;;
57309;SDS011;43153;50.984;18.204;2023-08-21T01:18:26;22.30;;;13.30;;
57309;SDS011;43153;50.984;18.204;2023-08-21T01:20:57;18.10;;;12.50;;
57309;SDS011;43153;50.984;18.204;2023-08-21T01:26:14;18.50;;;11.70;;
57309;SDS011;43153;50.984;18.204;2023-08-21T01:28:43;20.50;;;11.30;;
57309;SDS011;43153;50.984;18.204;2023-08-21T01:31:26;19.30;;;11.80;;
57309;SDS011;43153;50.984;18.204;2023-08-21T01:33:57;23.00;;;13.20;;
57309;SDS011;43153;50.984;18.204;2023-08-21T01:36:25;21.80;;;12.10;;
57309;SDS011;43153;50.984;18.204;2023-08-21T01:38:52;18.30;;;12.40;;
57309;SDS011;43153;50.984;18.204;2023-08-21T01:41:19;16.90;;;12.10;;
57309;SDS011;43153;50.984;18.204;2023-08-21T01:43:50;21.50;;;12.60;;
57309;SDS011;43153;50.984;18.204;2023-08-21T01:46:16;16.00;;;11.40;;
57309;SDS011;43153;50.984;18.204;2023-08-21T01:48:43;17.80;;;11.20;;
57309;SDS011;43153;50.984;18.204;2023-08-21T01:51:12;19.20;;;13.20;;
57309;SDS011;43153;50.984;18.204;2023-08-21T01:53:38;17.80;;;12.30;;
57309;SDS011;43153;50.984;18.204;2023-08-21T01:56:04;18.70;;;12.60;;
57309;SDS011;43153;50.984;18.204;2023-08-21T01:58:32;17.40;;;12.60;;
57309;SDS011;43153;50.984;18.204;2023-08-21T02:01:00;21.10;;;13.40;;
57309;SDS011;43153;50.984;18.204;2023-08-21T02:03:29;18.50;;;13.30;;
57309;SDS011;43153;50.984;18.204;2023-08-21T02:05:56;25.10;;;14.30;;
57309;SDS011;43153;50.984;18.204;2023-08-21T02:08:27;24.90;;;13.70;;
57309;SDS011;43153;50.984;18.204;2023-08-21T02:11:03;20.70;;;13.40;;
57309;SDS011;43153;50.984;18.204;2023-08-21T02:13:35;17.50;;;13.00;;
57309;SDS011;43153;50.984;18.204;2023-08-21T02:16:01;20.30;;;13.40;;
57309;SDS011;43153;50.984;18.204;2023-08-21T02:18:27;20.00;;;13.40;;
57309;SDS011;43153;50.984;18.204;2023-08-21T02:20:54;23.70;;;15.10;;
57309;SDS011;43153;50.984;18.204;2023-08-21T02:23:31;21.10;;;13.40;;
57309;SDS011;43153;50.984;18.204;2023-08-21T02:25:58;19.30;;;12.70;;
57309;SDS011;43153;50.984;18.204;2023-08-21T02:28:24;18.60;;;12.40;;
57309;SDS011;43153;50.984;18.204;2023-08-21T02:30:52;21.90;;;14.30;;
57309;SDS011;43153;50.984;18.204;2023-08-21T02:33:19;18.60;;;13.40;;
57309;SDS011;43153;50.984;18.204;2023-08-21T02:35:45;21.80;;;13.40;;
57309;SDS011;43153;50.984;18.204;2023-08-21T02:38:11;25.20;;;13.60;;
57309;SDS011;43153;50.984;18.204;2023-08-21T02:40:38;21.50;;;14.90;;
57309;SDS011;43153;50.984;18.204;2023-08-21T02:43:06;19.80;;;14.10;;
57309;SDS011;43153;50.984;18.204;2023-08-21T02:45:32;19.90;;;13.90;;
57309;SDS011;43153;50.984;18.204;2023-08-21T02:48:00;18.20;;;14.10;;
57309;SDS011;43153;50.984;18.204;2023-08-21T02:50:26;22.30;;;14.30;;
57309;SDS011;43153;50.984;18.204;2023-08-21T02:52:54;18.80;;;13.10;;
57309;SDS011;43153;50.984;18.204;2023-08-21T02:55:20;23.60;;;14.20;;
57309;SDS011;43153;50.984;18.204;2023-08-21T02:57:46;21.70;;;13.80;;
57309;SDS011;43153;50.984;18.204;2023-08-21T03:00:12;21.00;;;14.30;;
57309;SDS011;43153;50.984;18.204;2023-08-21T03:02:40;20.60;;;14.30;;
57309;SDS011;43153;50.984;18.204;2023-08-21T03:05:09;20.40;;;15.00;;
57309;SDS011;43153;50.984;18.204;2023-08-21T03:07:37;22.80;;;14.30;;
57309;SDS011;43153;50.984;18.204;2023-08-21T03:10:04;22.10;;;12.80;;
57309;SDS011;43153;50.984;18.204;2023-08-21T03:12:32;18.50;;;14.20;;
57309;SDS011;43153;50.984;18.204;2023-08-21T03:14:59;23.20;;;14.70;;
57309;SDS011;43153;50.984;18.204;2023-08-21T03:17:26;20.40;;;14.00;;
57309;SDS011;43153;50.984;18.204;2023-08-21T03:19:55;19.60;;;14.10;;
57309;SDS011;43153;50.984;18.204;2023-08-21T03:22:21;23.70;;;14.70;;
57309;SDS011;43153;50.984;18.204;2023-08-21T03:24:48;20.20;;;14.00;;
57309;SDS011;43153;50.984;18.204;2023-08-21T03:27:16;18.50;;;13.90;;
57309;SDS011;43153;50.984;18.204;2023-08-21T03:29:48;20.00;;;12.90;;
57309;SDS011;43153;50.984;18.204;2023-08-21T03:32:17;22.40;;;13.20;;
57309;SDS011;43153;50.984;18.204;2023-08-21T03:34:46;19.60;;;12.60;;
57309;SDS011;43153;50.984;18.204;2023-08-21T03:37:18;18.10;;;12.80;;
57309;SDS011;43153;50.984;18.204;2023-08-21T03:39:47;18.10;;;11.70;;
57309;SDS011;43153;50.984;18.204;2023-08-21T03:42:19;17.50;;;13.10;;
57309;SDS011;43153;50.984;18.204;2023-08-21T03:45:01;20.50;;;13.50;;
57309;SDS011;43153;50.984;18.204;2023-08-21T03:47:35;21.50;;;14.10;;
57309;SDS011;43153;50.984;18.204;2023-08-21T03:50:02;17.60;;;12.40;;
57309;SDS011;43153;50.984;18.204;2023-08-21T03:52:29;24.10;;;14.40;;
57309;SDS011;43153;50.984;18.204;2023-08-21T03:54:57;21.70;;;13.70;;
57309;SDS011;43153;50.984;18.204;2023-08-21T03:57:25;19.90;;;14.50;;
57309;SDS011;43153;50.984;18.204;2023-08-21T03:59:59;19.90;;;13.50;;
57309;SDS011;43153;50.984;18.204;2023-08-21T04:02:28;19.90;;;13.70;;
57309;SDS011;43153;50.984;18.204;2023-08-21T04:04:56;18.30;;;13.80;;
57309;SDS011;43153;50.984;18.204;2023-08-21T04:07:24;21.40;;;13.40;;
57309;SDS011;43153;50.984;18.204;2023-08-21T04:09:54;18.60;;;12.20;;
57309;SDS011;43153;50.984;18.204;2023-08-21T04:12:20;20.20;;;13.10;;
57309;SDS011;43153;50.984;18.204;2023-08-21T04:14:47;21.00;;;13.30;;
57309;SDS011;43153;50.984;18.204;2023-08-21T04:17:19;18.70;;;12.80;;
57309;SDS011;43153;50.984;18.204;2023-08-21T04:19:47;18.90;;;12.80;;
57309;SDS011;43153;50.984;18.204;2023-08-21T04:22:13;19.90;;;13.80;;
57309;SDS011;43153;50.984;18.204;2023-08-21T04:24:40;19.50;;;13.30;;
57309;SDS011;43153;50.984;18.204;2023-08-21T04:27:08;18.30;;;12.80;;
57309;SDS011;43153;50.984;18.204;2023-08-21T04:29:38;18.40;;;13.30;;
57309;SDS011;43153;50.984;18.204;2023-08-21T04:32:05;18.60;;;12.90;;
57309;SDS011;43153;50.984;18.204;2023-08-21T04:34:34;23.70;;;13.20;;
57309;SDS011;43153;50.984;18.204;2023-08-21T04:37:03;20.10;;;13.60;;
57309;SDS011;43153;50.984;18.204;2023-08-21T04:40:13;19.90;;;13.60;;
57309;SDS011;43153;50.984;18.204;2023-08-21T04:42:45;20.10;;;14.30;;
57309;SDS011;43153;50.984;18.204;2023-08-21T04:45:11;20.40;;;13.60;;
57309;SDS011;43153;50.984;18.204;2023-08-21T04:47:38;23.40;;;14.70;;
57309;SDS011;43153;50.984;18.204;2023-08-21T04:50:09;24.70;;;14.60;;
57309;SDS011;43153;50.984;18.204;2023-08-21T04:52:38;25.50;;;15.10;;
57309;SDS011;43153;50.984;18.204;2023-08-21T04:55:11;22.70;;;15.40;;
57309;SDS011;43153;50.984;18.204;2023-08-21T04:57:43;21.70;;;16.30;;
57309;SDS011;43153;50.984;18.204;2023-08-21T05:00:09;24.00;;;17.00;;
57309;SDS011;43153;50.984;18.204;2023-08-21T05:02:36;26.20;;;16.10;;
57309;SDS011;43153;50.984;18.204;2023-08-21T05:05:07;24.40;;;17.20;;
57309;SDS011;43153;50.984;18.204;2023-08-21T05:07:34;26.50;;;16.70;;
57309;SDS011;43153;50.984;18.204;2023-08-21T05:10:03;26.60;;;17.50;;
57309;SDS011;43153;50.984;18.204;2023-08-21T05:12:31;28.20;;;19.00;;
57309;SDS011;43153;50.984;18.204;2023-08-21T05:14:58;24.40;;;16.80;;
57309;SDS011;43153;50.984;18.204;2023-08-21T05:17:24;23.30;;;17.00;;
57309;SDS011;43153;50.984;18.204;2023-08-21T05:19:53;23.20;;;16.90;;
57309;SDS011;43153;50.984;18.204;2023-08-21T05:22:19;24.90;;;17.50;;
57309;SDS011;43153;50.984;18.204;2023-08-21T05:24:45;22.80;;;15.30;;
57309;SDS011;43153;50.984;18.204;2023-08-21T05:27:15;23.00;;;15.20;;
57309;SDS011;43153;50.984;18.204;2023-08-21T05:29:46;23.60;;;15.80;;
57309;SDS011;43153;50.984;18.204;2023-08-21T05:32:18;21.50;;;14.80;;
57309;SDS011;43153;50.984;18.204;2023-08-21T05:34:46;18.50;;;13.10;;
57309;SDS011;43153;50.984;18.204;2023-08-21T05:37:13;20.30;;;12.80;;
57309;SDS011;43153;50.984;18.204;2023-08-21T05:39:44;21.20;;;13.50;;
57309;SDS011;43153;50.984;18.204;2023-08-21T05:42:10;18.90;;;12.50;;
57309;SDS011;43153;50.984;18.204;2023-08-21T05:44:37;16.80;;;11.50;;
57309;SDS011;43153;50.984;18.204;2023-08-21T05:47:14;19.50;;;11.60;;
57309;SDS011;43153;50.984;18.204;2023-08-21T05:49:40;21.30;;;11.40;;
57309;SDS011;43153;50.984;18.204;2023-08-21T05:52:08;17.70;;;12.20;;
57309;SDS011;43153;50.984;18.204;2023-08-21T05:54:37;18.40;;;10.90;;
57309;SDS011;43153;50.984;18.204;2023-08-21T05:57:06;18.50;;;11.20;;
57309;SDS011;43153;50.984;18.204;2023-08-21T05:59:33;14.60;;;10.60;;
57309;SDS011;43153;50.984;18.204;2023-08-21T06:02:02;16.40;;;10.90;;
57309;SDS011;43153;50.984;18.204;2023-08-21T06:04:29;18.80;;;10.70;;
57309;SDS011;43153;50.984;18.204;2023-08-21T06:06:57;15.90;;;8.80;;
57309;SDS011;43153;50.984;18.204;2023-08-21T06:09:31;15.20;;;9.50;;
57309;SDS011;43153;50.984;18.204;2023-08-21T06:12:00;23.60;;;9.90;;
57309;SDS011;43153;50.984;18.204;2023-08-21T06:14:32;21.40;;;9.40;;
57309;SDS011;43153;50.984;18.204;2023-08-21T06:17:02;21.50;;;8.10;;
57309;SDS011;43153;50.984;18.204;2023-08-21T06:19:52;18.20;;;7.40;;
57309;SDS011;43153;50.984;18.204;2023-08-21T06:23:10;10.80;;;5.40;;
57309;SDS011;43153;50.984;18.204;2023-08-21T06:25:36;10.40;;;6.30;;
57309;SDS011;43153;50.984;18.204;2023-08-21T06:28:03;12.50;;;7.40;;
57309;SDS011;43153;50.984;18.204;2023-08-21T06:30:32;11.40;;;5.90;;
57309;SDS011;43153;50.984;18.204;2023-08-21T06:32:59;11.50;;;6.30;;
57309;SDS011;43153;50.984;18.204;2023-08-21T06:35:27;10.90;;;5.80;;
57309;SDS011;43153;50.984;18.204;2023-08-21T06:37:54;11.20;;;6.80;;
57309;SDS011;43153;50.984;18.204;2023-08-21T06:40:23;10.30;;;6.30;;
57309;SDS011;43153;50.984;18.204;2023-08-21T06:42:49;12.30;;;6.40;;
57309;SDS011;43153;50.984;18.204;2023-08-21T06:45:23;10.20;;;5.70;;
57309;SDS011;43153;50.984;18.204;2023-08-21T06:47:51;13.40;;;6.50;;
57309;SDS011;43153;50.984;18.204;2023-08-21T06:50:17;16.00;;;7.30;;
57309;SDS011;43153;50.984;18.204;2023-08-21T06:52:47;10.20;;;5.50;;
57309;SDS011;43153;50.984;18.204;2023-08-21T06:55:14;13.40;;;6.30;;
57309;SDS011;43153;50.984;18.204;2023-08-21T06:57:43;11.50;;;6.00;;
57309;SDS011;43153;50.984;18.204;2023-08-21T07:00:10;9.10;;;5.50;;
57309;SDS011;43153;50.984;18.204;2023-08-21T07:02:36;12.80;;;7.00;;
57309;SDS011;43153;50.984;18.204;2023-08-21T07:05:07;10.80;;;6.10;;
57309;SDS011;43153;50.984;18.204;2023-08-21T07:07:33;9.30;;;5.70;;
57309;SDS011;43153;50.984;18.204;2023-08-21T07:10:02;13.80;;;6.50;;
57309;SDS011;43153;50.984;18.204;2023-08-21T07:12:35;19.50;;;6.40;;
57309;SDS011;43153;50.984;18.204;2023-08-21T07:15:00;17.70;;;8.20;;
57309;SDS011;43153;50.984;18.204;2023-08-21T07:17:29;11.70;;;6.50;;
57309;SDS011;43153;50.984;18.204;2023-08-21T07:19:57;11.30;;;6.30;;
57309;SDS011;43153;50.984;18.204;2023-08-21T07:22:25;10.90;;;6.80;;
57309;SDS011;43153;50.984;18.204;2023-08-21T07:24:54;15.90;;;6.10;;
57309;SDS011;43153;50.984;18.204;2023-08-21T07:27:23;10.80;;;6.70;;
57309;SDS011;43153;50.984;18.204;2023-08-21T07:29:52;11.20;;;5.90;;
57309;SDS011;43153;50.984;18.204;2023-08-21T07:32:19;9.70;;;5.10;;
57309;SDS011;43153;50.984;18.204;2023-08-21T07:34:45;9.90;;;5.90;;
57309;SDS011;43153;50.984;18.204;2023-08-21T07:37:11;9.50;;;5.70;;
57309;SDS011;43153;50.984;18.204;2023-08-21T07:39:40;10.40;;;5.60;;
57309;SDS011;43153;50.984;18.204;2023-08-21T07:42:11;10.00;;;4.90;;
57309;SDS011;43153;50.984;18.204;2023-08-21T07:44:40;10.40;;;4.90;;
57309;SDS011;43153;50.984;18.204;2023-08-21T07:47:07;9.20;;;4.60;;
57309;SDS011;43153;50.984;18.204;2023-08-21T07:49:33;9.00;;;4.90;;
57309;SDS011;43153;50.984;18.204;2023-08-21T07:52:00;8.40;;;4.10;;
57309;SDS011;43153;50.984;18.204;2023-08-21T07:54:28;7.30;;;4.30;;
57309;SDS011;43153;50.984;18.204;2023-08-21T07:56:56;10.20;;;4.80;;
57309;SDS011;43153;50.984;18.204;2023-08-21T07:59:24;8.70;;;5.10;;
57309;SDS011;43153;50.984;18.204;2023-08-21T08:01:52;12.90;;;6.70;;
57309;SDS011;43153;50.984;18.204;2023-08-21T08:04:19;6.90;;;3.90;;
57309;SDS011;43153;50.984;18.204;2023-08-21T08:06:52;7.50;;;3.90;;
57309;SDS011;43153;50.984;18.204;2023-08-21T08:09:17;6.20;;;3.60;;
57309;SDS011;43153;50.984;18.204;2023-08-21T08:11:50;8.50;;;3.90;;
57309;SDS011;43153;50.984;18.204;2023-08-21T08:14:22;6.90;;;3.80;;
57309;SDS011;43153;50.984;18.204;2023-08-21T08:16:49;9.40;;;3.90;;
57309;SDS011;43153;50.984;18.204;2023-08-21T08:19:15;7.80;;;4.00;;
57309;SDS011;43153;50.984;18.204;2023-08-21T08:21:41;10.60;;;4.10;;
57309;SDS011;43153;50.984;18.204;2023-08-21T08:24:10;7.50;;;4.00;;
57309;SDS011;43153;50.984;18.204;2023-08-21T08:26:44;9.50;;;3.60;;
57309;SDS011;43153;50.984;18.204;2023-08-21T08:29:12;6.70;;;3.80;;
57309;SDS011;43153;50.984;18.204;2023-08-21T08:31:39;6.20;;;3.30;;
57309;SDS011;43153;50.984;18.204;2023-08-21T08:34:09;7.80;;;4.60;;
57309;SDS011;43153;50.984;18.204;2023-08-21T08:36:37;7.70;;;4.40;;
57309;SDS011;43153;50.984;18.204;2023-08-21T08:39:06;9.00;;;3.60;;
57309;SDS011;43153;50.984;18.204;2023-08-21T08:41:43;8.40;;;3.70;;
57309;SDS011;43153;50.984;18.204;2023-08-21T08:44:15;7.20;;;4.10;;
57309;SDS011;43153;50.984;18.204;2023-08-21T08:49:13;12.50;;;5.40;;
57309;SDS011;43153;50.984;18.204;2023-08-21T08:51:39;9.60;;;4.40;;
57309;SDS011;43153;50.984;18.204;2023-08-21T08:54:05;7.30;;;4.10;;
57309;SDS011;43153;50.984;18.204;2023-08-21T08:56:32;7.60;;;4.00;;
57309;SDS011;43153;50.984;18.204;2023-08-21T08:58:57;8.90;;;4.40;;
57309;SDS011;43153;50.984;18.204;2023-08-21T09:01:26;9.20;;;5.20;;
57309;SDS011;43153;50.984;18.204;2023-08-21T09:03:57;9.60;;;4.70;;
57309;SDS011;43153;50.984;18.204;2023-08-21T09:06:28;20.60;;;6.90;;
57309;SDS011;43153;50.984;18.204;2023-08-21T09:08:55;10.40;;;4.60;;
57309;SDS011;43153;50.984;18.204;2023-08-21T09:11:24;7.70;;;4.70;;
57309;SDS011;43153;50.984;18.204;2023-08-21T09:13:54;7.70;;;5.00;;
57309;SDS011;43153;50.984;18.204;2023-08-21T09:16:22;6.90;;;4.00;;
57309;SDS011;43153;50.984;18.204;2023-08-21T09:18:51;8.10;;;4.10;;
57309;SDS011;43153;50.984;18.204;2023-08-21T09:21:24;8.90;;;4.10;;
57309;SDS011;43153;50.984;18.204;2023-08-21T09:24:00;6.40;;;3.90;;
57309;SDS011;43153;50.984;18.204;2023-08-21T09:26:30;7.70;;;4.80;;
57309;SDS011;43153;50.984;18.204;2023-08-21T09:28:58;7.90;;;4.50;;
57309;SDS011;43153;50.984;18.204;2023-08-21T09:31:29;8.30;;;5.00;;
57309;SDS011;43153;50.984;18.204;2023-08-21T09:33:58;11.40;;;4.20;;
57309;SDS011;43153;50.984;18.204;2023-08-21T09:36:31;8.60;;;4.40;;
57309;SDS011;43153;50.984;18.204;2023-08-21T09:39:02;9.00;;;4.50;;
57309;SDS011;43153;50.984;18.204;2023-08-21T09:41:31;7.00;;;4.10;;
57309;SDS011;43153;50.984;18.204;2023-08-21T09:44:07;10.10;;;4.90;;
57309;SDS011;43153;50.984;18.204;2023-08-21T10:35:58;9.30;;;4.30;;
57309;SDS011;43153;50.984;18.204;2023-08-21T10:41:27;8.10;;;3.70;;
57309;SDS011;43153;50.984;18.204;2023-08-21T10:47:59;7.50;;;4.40;;
57309;SDS011;43153;50.984;18.204;2023-08-21T10:51:31;7.10;;;4.10;;
57309;SDS011;43153;50.984;18.204;2023-08-21T10:55:02;7.70;;;4.60;;
57309;SDS011;43153;50.984;18.204;2023-08-21T10:58:42;7.90;;;4.10;;
57309;SDS011;43153;50.984;18.204;2023-08-21T11:02:13;9.40;;;4.30;;
57309;SDS011;43153;50.984;18.204;2023-08-21T11:14:02;5.60;;;3.00;;
57309;SDS011;43153;50.984;18.204;2023-08-21T11:16:30;5.20;;;2.60;;
57309;SDS011;43153;50.984;18.204;2023-08-21T11:19:03;5.30;;;2.90;;
57309;SDS011;43153;50.984;18.204;2023-08-21T11:21:31;5.70;;;3.10;;
57309;SDS011;43153;50.984;18.204;2023-08-21T11:23:59;6.50;;;2.20;;
57309;SDS011;43153;50.984;18.204;2023-08-21T11:26:30;5.10;;;2.20;;
57309;SDS011;43153;50.984;18.204;2023-08-21T11:28:57;3.10;;;1.60;;
57309;SDS011;43153;50.984;18.204;2023-08-21T11:31:28;4.70;;;2.30;;
57309;SDS011;43153;50.984;18.204;2023-08-21T11:33:55;5.50;;;2.40;;
57309;SDS011;43153;50.984;18.204;2023-08-21T11:36:24;6.70;;;2.10;;
57309;SDS011;43153;50.984;18.204;2023-08-21T11:39:00;7.90;;;2.50;;
57309;SDS011;43153;50.984;18.204;2023-08-21T11:41:31;7.70;;;1.90;;
57309;SDS011;43153;50.984;18.204;2023-08-21T11:44:02;5.20;;;2.30;;
57309;SDS011;43153;50.984;18.204;2023-08-21T11:46:29;5.40;;;2.50;;
57309;SDS011;43153;50.984;18.204;2023-08-21T11:48:58;5.00;;;2.20;;
57309;SDS011;43153;50.984;18.204;2023-08-21T11:51:37;6.50;;;2.80;;
57309;SDS011;43153;50.984;18.204;2023-08-21T11:54:05;5.20;;;3.30;;
57309;SDS011;43153;50.984;18.204;2023-08-21T11:56:34;6.40;;;3.00;;
57309;SDS011;43153;50.984;18.204;2023-08-21T11:59:02;5.40;;;2.70;;
57309;SDS011;43153;50.984;18.204;2023-08-21T12:01:35;7.40;;;2.90;;
57309;SDS011;43153;50.984;18.204;2023-08-21T12:04:14;5.00;;;2.70;;
57309;SDS011;43153;50.984;18.204;2023-08-21T12:06:45;5.40;;;2.60;;
57309;SDS011;43153;50.984;18.204;2023-08-21T12:09:12;6.00;;;2.70;;
57309;SDS011;43153;50.984;18.204;2023-08-21T12:11:38;6.50;;;3.40;;
57309;SDS011;43153;50.984;18.204;2023-08-21T12:14:06;5.80;;;2.80;;
57309;SDS011;43153;50.984;18.204;2023-08-21T12:16:37;4.80;;;2.90;;
57309;SDS011;43153;50.984;18.204;2023-08-21T12:19:07;6.40;;;2.80;;
57309;SDS011;43153;50.984;18.204;2023-08-21T12:21:40;18.10;;;3.50;;
57309;SDS011;43153;50.984;18.204;2023-08-21T12:24:18;4.70;;;2.30;;
57309;SDS011;43153;50.984;18.204;2023-08-21T12:26:44;5.80;;;3.00;;
57309;SDS011;43153;50.984;18.204;2023-08-21T12:29:13;8.10;;;3.20;;
57309;SDS011;43153;50.984;18.204;2023-08-21T12:31:43;9.30;;;2.90;;
57309;SDS011;43153;50.984;18.204;2023-08-21T12:34:12;5.20;;;2.60;;
57309;SDS011;43153;50.984;18.204;2023-08-21T12:36:41;5.70;;;3.00;;
57309;SDS011;43153;50.984;18.204;2023-08-21T12:39:10;6.20;;;2.90;;
57309;SDS011;43153;50.984;18.204;2023-08-21T12:41:35;6.40;;;3.00;;
57309;SDS011;43153;50.984;18.204;2023-08-21T12:44:02;6.10;;;3.40;;
57309;SDS011;43153;50.984;18.204;2023-08-21T12:46:30;5.70;;;2.80;;
57309;SDS011;43153;50.984;18.204;2023-08-21T12:48:56;6.00;;;3.20;;
57309;SDS011;43153;50.984;18.204;2023-08-21T12:51:28;6.30;;;3.20;;
57309;SDS011;43153;50.984;18.204;2023-08-21T12:53:57;5.50;;;2.60;;
57309;SDS011;43153;50.984;18.204;2023-08-21T12:56:22;7.00;;;2.80;;
57309;SDS011;43153;50.984;18.204;2023-08-21T12:58:50;5.70;;;2.80;;
57309;SDS011;43153;50.984;18.204;2023-08-21T13:01:20;6.10;;;2.70;;
57309;SDS011;43153;50.984;18.204;2023-08-21T13:03:47;9.10;;;2.70;;
57309;SDS011;43153;50.984;18.204;2023-08-21T13:06:17;6.70;;;3.20;;
57309;SDS011;43153;50.984;18.204;2023-08-21T13:08:46;7.20;;;3.00;;
57309;SDS011;43153;50.984;18.204;2023-08-21T13:11:15;7.10;;;3.50;;
57309;SDS011;43153;50.984;18.204;2023-08-21T13:13:42;5.80;;;3.00;;
57309;SDS011;43153;50.984;18.204;2023-08-21T13:16:11;5.40;;;3.00;;
57309;SDS011;43153;50.984;18.204;2023-08-21T13:18:40;8.10;;;3.50;;
57309;SDS011;43153;50.984;18.204;2023-08-21T13:21:07;9.30;;;3.80;;
57309;SDS011;43153;50.984;18.204;2023-08-21T13:23:37;6.80;;;3.80;;
57309;SDS011;43153;50.984;18.204;2023-08-21T13:26:03;9.70;;;3.60;;
57309;SDS011;43153;50.984;18.204;2023-08-21T13:28:35;7.70;;;3.50;;
57309;SDS011;43153;50.984;18.204;2023-08-21T13:31:37;7.40;;;3.80;;
57309;SDS011;43153;50.984;18.204;2023-08-21T13:34:16;8.60;;;3.20;;
57309;SDS011;43153;50.984;18.204;2023-08-21T13:39:49;6.90;;;3.50;;
57309;SDS011;43153;50.984;18.204;2023-08-21T13:42:16;7.70;;;4.40;;
57309;SDS011;43153;50.984;18.204;2023-08-21T13:44:42;6.60;;;3.50;;
57309;SDS011;43153;50.984;18.204;2023-08-21T13:49:41;6.40;;;3.00;;
57309;SDS011;43153;50.984;18.204;2023-08-21T13:52:10;7.00;;;3.20;;
57309;SDS011;43153;50.984;18.204;2023-08-21T13:54:41;6.60;;;3.30;;
57309;SDS011;43153;50.984;18.204;2023-08-21T13:57:07;5.00;;;2.60;;
57309;SDS011;43153;50.984;18.204;2023-08-21T13:59:34;7.30;;;3.10;;
57309;SDS011;43153;50.984;18.204;2023-08-21T14:02:00;6.00;;;2.60;;
57309;SDS011;43153;50.984;18.204;2023-08-21T14:04:32;6.60;;;3.10;;
57309;SDS011;43153;50.984;18.204;2023-08-21T14:06:58;5.70;;;3.20;;
57309;SDS011;43153;50.984;18.204;2023-08-21T14:09:27;7.20;;;3.10;;
57309;SDS011;43153;50.984;18.204;2023-08-21T14:11:54;7.00;;;2.60;;
57309;SDS011;43153;50.984;18.204;2023-08-21T14:14:22;6.10;;;2.90;;
57309;SDS011;43153;50.984;18.204;2023-08-21T14:16:48;5.80;;;2.80;;
57309;SDS011;43153;50.984;18.204;2023-08-21T14:19:16;5.30;;;2.90;;
57309;SDS011;43153;50.984;18.204;2023-08-21T14:21:46;4.60;;;2.30;;
57309;SDS011;43153;50.984;18.204;2023-08-21T14:24:15;4.90;;;1.90;;
57309;SDS011;43153;50.984;18.204;2023-08-21T14:26:43;4.40;;;2.30;;
57309;SDS011;43153;50.984;18.204;2023-08-21T14:29:09;5.40;;;2.40;;
57309;SDS011;43153;50.984;18.204;2023-08-21T14:31:35;5.10;;;2.30;;
57309;SDS011;43153;50.984;18.204;2023-08-21T14:34:05;6.20;;;2.80;;
57309;SDS011;43153;50.984;18.204;2023-08-21T14:36:33;5.40;;;2.30;;
57309;SDS011;43153;50.984;18.204;2023-08-21T14:39:00;6.20;;;2.30;;
57309;SDS011;43153;50.984;18.204;2023-08-21T14:41:26;6.00;;;2.40;;
57309;SDS011;43153;50.984;18.204;2023-08-21T14:43:52;5.20;;;2.60;;
57309;SDS011;43153;50.984;18.204;2023-08-21T14:46:18;4.00;;;2.10;;
57309;SDS011;43153;50.984;18.204;2023-08-21T14:48:43;5.40;;;2.30;;
57309;SDS011;43153;50.984;18.204;2023-08-21T14:51:09;5.30;;;2.20;;
57309;SDS011;43153;50.984;18.204;2023-08-21T14:53:37;5.30;;;2.40;;
57309;SDS011;43153;50.984;18.204;2023-08-21T14:56:04;5.20;;;2.10;;
57309;SDS011;43153;50.984;18.204;2023-08-21T14:58:32;3.60;;;1.90;;
57309;SDS011;43153;50.984;18.204;2023-08-21T15:01:04;6.90;;;2.10;;
57309;SDS011;43153;50.984;18.204;2023-08-21T15:03:36;4.20;;;1.80;;
57309;SDS011;43153;50.984;18.204;2023-08-21T15:06:02;6.70;;;2.40;;
57309;SDS011;43153;50.984;18.204;2023-08-21T15:08:34;5.80;;;2.00;;
57309;SDS011;43153;50.984;18.204;2023-08-21T15:11:00;5.50;;;2.20;;
57309;SDS011;43153;50.984;18.204;2023-08-21T15:13:28;4.70;;;1.90;;
57309;SDS011;43153;50.984;18.204;2023-08-21T15:15:54;5.80;;;2.30;;
57309;SDS011;43153;50.984;18.204;2023-08-21T15:18:20;6.00;;;2.00;;
57309;SDS011;43153;50.984;18.204;2023-08-21T15:20:46;4.70;;;1.80;;
57309;SDS011;43153;50.984;18.204;2023-08-21T15:23:12;3.80;;;2.00;;
57309;SDS011;43153;50.984;18.204;2023-08-21T15:25:38;5.70;;;1.60;;
57309;SDS011;43153;50.984;18.204;2023-08-21T15:28:05;5.70;;;2.10;;
57309;SDS011;43153;50.984;18.204;2023-08-21T15:30:32;4.70;;;1.80;;
57309;SDS011;43153;50.984;18.204;2023-08-21T15:33:03;4.80;;;1.70;;
57309;SDS011;43153;50.984;18.204;2023-08-21T15:35:32;3.40;;;1.60;;
57309;SDS011;43153;50.984;18.204;2023-08-21T15:38:01;5.40;;;2.10;;
57309;SDS011;43153;50.984;18.204;2023-08-21T15:40:29;6.10;;;2.20;;
57309;SDS011;43153;50.984;18.204;2023-08-21T15:42:55;4.10;;;1.60;;
57309;SDS011;43153;50.984;18.204;2023-08-21T15:45:22;3.70;;;1.80;;
57309;SDS011;43153;50.984;18.204;2023-08-21T15:47:52;5.50;;;2.30;;
57309;SDS011;43153;50.984;18.204;2023-08-21T15:50:20;5.50;;;1.90;;
57309;SDS011;43153;50.984;18.204;2023-08-21T15:52:47;5.50;;;1.90;;
57309;SDS011;43153;50.984;18.204;2023-08-21T15:55:14;4.80;;;2.00;;